Time;durP1;ratioP1;P1;durP2;ratioP2;P2;SDS_P1;SDS_P2;PMS_P1;PMS_P2;Temp;Humidity;BMP_temperature;BMP_pressure;BME280_temperature;BME280_humidity;BME280_pressure;Samples;Min_cycle;Max_cycle;Signal;HPM_P1;HPM_P2
2023/12/26 00:01:57;;;;;;;1999.90;999.90;;;;;;;11.13;100.00;100459.84;10377172;28;20050;-67
2023/12/26 00:07:00;;;;;;;1999.90;999.90;;;;;;;11.01;100.00;100465.88;10376486;28;20099;-67
2023/12/26 00:12:02;;;;;;;1999.90;999.90;;;;;;;11.01;100.00;100471.13;10376789;28;20477;-67
2023/12/26 00:17:05;;;;;;;1999.90;999.90;;;;;;;10.95;100.00;100463.66;10376597;28;20045;-67
2023/12/26 00:22:07;;;;;;;1999.90;999.90;;;;;;;11.00;100.00;100486.94;10375528;28;20465;-67
2023/12/26 00:27:09;;;;;;;1999.90;999.90;;;;;;;11.01;100.00;100494.69;10376133;28;20054;-67
2023/12/26 00:32:12;;;;;;;1999.90;999.90;;;;;;;10.90;100.00;100490.13;10376573;28;20046;-67
2023/12/26 00:37:14;;;;;;;1999.90;999.90;;;;;;;10.93;100.00;100479.47;10375603;28;20058;-67
2023/12/26 00:42:17;;;;;;;1999.90;999.90;;;;;;;11.08;100.00;100471.56;10374470;28;20374;-67
2023/12/26 00:47:20;;;;;;;1999.90;999.90;;;;;;;10.87;100.00;100477.22;10375511;28;20103;-67
2023/12/26 00:52:22;;;;;;;1999.90;999.90;;;;;;;11.03;100.00;100468.38;10399063;22;20136;-65
2023/12/26 00:57:25;;;;;;;1999.90;999.90;;;;;;;10.79;100.00;100476.88;10457498;28;20123;-65
2023/12/26 01:02:27;;;;;;;1999.90;999.90;;;;;;;10.86;100.00;100482.56;10456971;28;20482;-64
2023/12/26 01:07:29;;;;;;;1999.90;999.90;;;;;;;10.72;100.00;100484.28;10457149;28;20128;-65
2023/12/26 01:12:32;;;;;;;1999.90;999.90;;;;;;;10.80;100.00;100486.41;10456879;28;20124;-64
2023/12/26 01:17:34;;;;;;;1999.90;999.90;;;;;;;10.72;100.00;100492.13;10455453;28;20055;-64
2023/12/26 01:22:37;;;;;;;1999.90;999.90;;;;;;;10.83;100.00;100481.00;10456692;28;20133;-64
2023/12/26 01:27:39;;;;;;;1999.90;999.90;;;;;;;10.57;100.00;100482.63;10456469;28;20124;-64
2023/12/26 01:32:42;;;;;;;1999.90;999.90;;;;;;;10.83;100.00;100473.13;10455064;28;20057;-65
2023/12/26 01:37:45;;;;;;;1999.90;999.90;;;;;;;10.78;100.00;100481.28;10463967;28;20051;-65
2023/12/26 01:42:47;;;;;;;1999.90;999.90;;;;;;;10.74;100.00;100474.56;10465424;28;20086;-65
2023/12/26 01:47:53;;;;;;;1999.90;999.90;;;;;;;10.68;100.00;100487.19;10465085;28;20068;-65
2023/12/26 01:52:56;;;;;;;1999.90;999.90;;;;;;;10.72;100.00;100499.97;10463715;28;20103;-65
2023/12/26 01:57:59;;;;;;;1999.90;999.90;;;;;;;10.83;100.00;100498.50;10464165;28;20143;-65
2023/12/26 02:03:02;;;;;;;1999.90;999.90;;;;;;;10.65;100.00;100500.47;10464115;28;20048;-65
2023/12/26 02:08:05;;;;;;;1999.90;999.90;;;;;;;10.81;100.00;100513.44;10463990;28;20057;-65
2023/12/26 02:13:20;;;;;;;1999.90;999.90;;;;;;;10.61;100.00;100512.94;10462573;28;20407;-64
2023/12/26 02:18:24;;;;;;;1999.90;999.90;;;;;;;10.71;100.00;100506.16;10464132;28;20057;-65
2023/12/26 02:23:27;;;;;;;1999.90;999.90;;;;;;;10.66;100.00;100508.25;10462025;28;20051;-64
2023/12/26 02:28:32;;;;;;;1999.90;999.90;;;;;;;10.56;100.00;100521.06;10461926;28;20080;-64
2023/12/26 02:33:35;;;;;;;1999.90;999.90;;;;;;;10.62;100.00;100530.28;10461836;28;20045;-64
2023/12/26 02:38:37;;;;;;;1999.90;999.90;;;;;;;10.71;100.00;100526.28;10462594;28;20053;-64
2023/12/26 02:43:40;;;;;;;1999.90;999.90;;;;;;;10.94;100.00;100530.94;10462643;28;20045;-64
2023/12/26 02:48:42;;;;;;;1999.90;999.90;;;;;;;10.96;100.00;100557.84;10459897;28;20399;-64
2023/12/26 02:53:45;;;;;;;1999.90;999.90;;;;;;;10.90;100.00;100576.56;10462302;28;20061;-65
2023/12/26 02:58:47;;;;;;;1999.90;999.90;;;;;;;10.75;100.00;100565.25;10462001;28;20049;-64
2023/12/26 03:03:49;;;;;;;1999.90;999.90;;;;;;;10.60;100.00;100561.81;10461502;28;20476;-65
2023/12/26 03:08:52;;;;;;;1999.90;999.90;;;;;;;10.55;100.00;100556.00;10461418;28;20388;-65
2023/12/26 03:13:54;;;;;;;1999.90;999.90;;;;;;;10.54;100.00;100574.41;10460166;28;20085;-65
2023/12/26 03:18:56;;;;;;;1999.90;999.90;;;;;;;10.52;100.00;100571.94;10443732;28;20508;-64
2023/12/26 03:23:59;;;;;;;1999.90;999.90;;;;;;;10.66;100.00;100596.41;10459772;28;20049;-64
2023/12/26 03:29:02;;;;;;;1999.90;999.90;;;;;;;10.62;100.00;100605.38;10460930;28;20057;-64
2023/12/26 03:34:04;;;;;;;1999.90;999.90;;;;;;;10.61;100.00;100612.41;10460557;28;20049;-64
2023/12/26 03:39:07;;;;;;;1999.90;999.90;;;;;;;10.56;100.00;100615.28;10460196;28;20056;-65
2023/12/26 03:44:09;;;;;;;1999.90;999.90;;;;;;;10.60;100.00;100618.56;10460265;28;20087;-65
2023/12/26 03:49:12;;;;;;;1999.90;999.90;;;;;;;10.61;100.00;100604.56;10459840;28;20120;-64
2023/12/26 03:54:18;;;;;;;1999.90;999.90;;;;;;;10.62;100.00;100610.63;10459394;28;20056;-64
2023/12/26 03:59:21;;;;;;;1999.90;999.90;;;;;;;10.49;100.00;100611.38;10458131;28;20056;-64
2023/12/26 04:04:23;;;;;;;1999.90;999.90;;;;;;;10.55;100.00;100613.59;10459108;28;20110;-64
2023/12/26 04:09:26;;;;;;;1999.90;999.90;;;;;;;10.40;100.00;100619.75;10459363;28;20044;-64
2023/12/26 04:14:28;;;;;;;1999.90;999.90;;;;;;;10.45;100.00;100632.56;10458828;28;20476;-62
2023/12/26 04:19:30;;;;;;;1999.90;999.90;;;;;;;10.34;100.00;100635.81;10458780;28;20132;-62
2023/12/26 04:24:33;;;;;;;1999.90;999.90;;;;;;;10.38;100.00;100639.94;10458573;28;20056;-62
2023/12/26 04:29:35;;;;;;;1999.90;999.90;;;;;;;10.36;100.00;100636.59;10458199;28;20476;-65
2023/12/26 04:34:41;;;;;;;1999.90;999.90;;;;;;;10.17;100.00;100669.03;10458443;28;20049;-65
2023/12/26 04:39:43;;;;;;;1999.90;999.90;;;;;;;10.21;100.00;100659.22;10458002;28;20408;-64
2023/12/26 04:44:46;;;;;;;1999.90;999.90;;;;;;;10.01;100.00;100665.59;10457950;28;20052;-64
2023/12/26 04:49:48;;;;;;;1999.90;999.90;;;;;;;9.99;100.00;100672.69;10457719;28;20048;-64
2023/12/26 04:54:51;;;;;;;1999.90;999.90;;;;;;;10.03;100.00;100697.75;10457413;28;20055;-64
2023/12/26 04:59:53;;;;;;;1999.90;999.90;;;;;;;9.93;100.00;100699.19;10457279;28;20073;-64
2023/12/26 05:04:56;;;;;;;1999.90;999.90;;;;;;;9.65;100.00;100698.97;10457025;28;20049;-64
2023/12/26 05:09:58;;;;;;;1999.90;999.90;;;;;;;9.70;100.00;100722.25;10455816;28;20124;-64
2023/12/26 05:15:00;;;;;;;1999.90;999.90;;;;;;;9.67;100.00;100732.88;10456782;28;20052;-64
2023/12/26 05:20:04;;;;;;;1999.90;999.90;;;;;;;9.66;100.00;100731.16;10456646;28;20179;-64
2023/12/26 05:25:23;;;;;;;1999.90;999.90;;;;;;;9.90;100.00;100739.44;10456604;28;20052;-64
2023/12/26 05:30:26;;;;;;;1999.90;999.90;;;;;;;9.93;100.00;100752.31;10455836;28;20103;-64
2023/12/26 05:35:28;;;;;;;1999.90;999.90;;;;;;;9.74;100.00;100746.44;10456281;28;20060;-64
2023/12/26 05:40:31;;;;;;;1999.90;999.90;;;;;;;9.64;100.00;100764.41;10456375;28;20128;-64
2023/12/26 05:45:33;;;;;;;1999.90;999.90;;;;;;;9.62;100.00;100771.47;10455606;28;20131;-64
2023/12/26 05:50:35;;;;;;;1999.90;999.90;;;;;;;9.40;100.00;100767.41;10456016;28;20477;-64
2023/12/26 05:55:38;;;;;;;1999.90;999.90;;;;;;;9.20;100.00;100786.72;10455991;28;20057;-63
2023/12/26 06:00:40;;;;;;;1999.90;999.90;;;;;;;9.16;100.00;100806.06;10455642;28;20514;-64
2023/12/26 06:05:42;;;;;;;1999.90;999.90;;;;;;;8.93;100.00;100820.31;10455755;28;20079;-63
2023/12/26 06:10:45;;;;;;;1999.90;999.90;;;;;;;9.04;100.00;100817.16;10455704;28;20124;-63
2023/12/26 06:15:47;;;;;;;1999.90;999.90;;;;;;;8.86;100.00;100834.59;10455475;28;20419;-63
2023/12/26 06:20:53;;;;;;;1999.90;999.90;;;;;;;8.76;100.00;100834.22;10457991;28;20055;-64
2023/12/26 06:25:56;;;;;;;1999.90;999.90;;;;;;;8.96;100.00;100856.72;10461872;28;20385;-64
2023/12/26 06:30:59;;;;;;;1999.90;999.90;;;;;;;8.85;100.00;100859.03;10463488;28;20399;-64
2023/12/26 06:36:01;;;;;;;1999.90;999.90;;;;;;;8.84;100.00;100883.44;10461798;28;20059;-64
2023/12/26 06:41:04;;;;;;;1999.90;999.90;;;;;;;8.74;100.00;100891.72;10462493;28;20377;-64
2023/12/26 06:46:07;;;;;;;1999.90;999.90;;;;;;;8.83;100.00;100898.25;10462997;28;20484;-64
2023/12/26 06:51:09;;;;;;;1999.90;999.90;;;;;;;8.85;100.00;100901.63;10461023;28;20133;-64
2023/12/26 06:56:12;;;;;;;1999.90;999.90;;;;;;;8.83;100.00;100911.31;10461896;28;20455;-64
2023/12/26 07:01:15;;;;;;;1999.90;999.90;;;;;;;8.66;100.00;100914.72;10461787;28;20059;-64
2023/12/26 07:06:18;;;;;;;1999.90;999.90;;;;;;;8.51;100.00;100920.69;10462015;28;20052;-64
2023/12/26 07:11:20;;;;;;;1999.90;999.90;;;;;;;8.49;100.00;100933.78;10461494;28;20052;-64
2023/12/26 07:16:23;;;;;;;1999.90;999.90;;;;;;;8.34;100.00;100942.31;10461192;28;20163;-64
2023/12/26 07:21:25;;;;;;;1999.90;999.90;;;;;;;8.25;100.00;100942.69;10461087;28;20049;-64
2023/12/26 07:26:28;;;;;;;1999.90;999.90;;;;;;;8.22;100.00;100955.88;10460932;28;20053;-63
2023/12/26 07:31:30;;;;;;;1999.90;999.90;;;;;;;8.32;100.00;100970.19;10458895;28;20510;-64
2023/12/26 07:36:32;;;;;;;1999.90;999.90;;;;;;;8.25;100.00;100971.41;10460476;28;20055;-63
2023/12/26 07:41:35;;;;;;;1999.90;999.90;;;;;;;8.19;100.00;100978.59;10460352;28;20049;-64
2023/12/26 07:46:37;;;;;;;1999.90;999.90;;;;;;;8.23;100.00;100991.50;10460335;28;20056;-64
2023/12/26 07:51:40;;;;;;;1999.90;999.90;;;;;;;8.14;100.00;101014.44;10459543;28;20365;-64
2023/12/26 07:56:42;;;;;;;1999.90;999.90;;;;;;;8.13;100.00;101014.50;10459872;28;20080;-64
2023/12/26 08:01:44;;;;;;;1999.90;999.90;;;;;;;8.05;100.00;101017.44;10458186;28;20091;-64
2023/12/26 08:06:47;;;;;;;1999.90;999.90;;;;;;;7.92;100.00;101026.75;10442167;28;20400;-63
2023/12/26 08:11:51;;;;;;;1999.90;999.90;;;;;;;8.12;100.00;101036.28;10457892;28;20074;-64
2023/12/26 08:16:53;;;;;;;1999.90;999.90;;;;;;;8.04;100.00;101036.63;10459295;28;20060;-64
2023/12/26 08:21:56;;;;;;;1999.90;999.90;;;;;;;8.20;100.00;101044.63;10458470;28;20055;-64
2023/12/26 08:26:58;;;;;;;1999.90;999.90;;;;;;;8.12;100.00;101046.72;10457341;28;20132;-64
2023/12/26 08:32:00;;;;;;;1999.90;999.90;;;;;;;8.25;100.00;101060.09;10458373;28;20049;-64
2023/12/26 08:37:03;;;;;;;1999.90;999.90;;;;;;;8.20;100.00;101078.53;10458034;28;20045;-64
2023/12/26 08:42:06;;;;;;;1999.90;999.90;;;;;;;8.35;100.00;101093.56;10457987;28;20061;-64
2023/12/26 08:47:08;;;;;;;1999.90;999.90;;;;;;;8.63;100.00;101096.75;10455817;28;20056;-64
2023/12/26 08:52:13;;;;;;;1999.90;999.90;;;;;;;8.91;100.00;101091.97;10457284;28;20063;-68
2023/12/26 08:57:15;;;;;;;1999.90;999.90;;;;;;;8.74;100.00;101103.16;10456222;28;20060;-64
2023/12/26 09:02:18;;;;;;;1999.90;999.90;;;;;;;8.67;100.00;101109.56;10457113;28;20350;-64
2023/12/26 09:07:20;;;;;;;1999.90;999.90;;;;;;;8.61;100.00;101120.28;10456948;28;20053;-63
2023/12/26 09:12:22;;;;;;;1999.90;999.90;;;;;;;8.65;100.00;101142.72;10456875;28;20051;-63
2023/12/26 09:17:25;;;;;;;1999.90;999.90;;;;;;;8.56;100.00;101145.75;10455847;28;20049;-63
2023/12/26 09:22:27;;;;;;;1999.90;999.90;;;;;;;8.43;100.00;101139.34;10456631;28;20053;-63
2023/12/26 09:27:30;;;;;;;1999.90;999.90;;;;;;;8.41;100.00;101168.09;10456405;28;20079;-63
2023/12/26 09:32:32;;;;;;;1999.90;999.90;;;;;;;8.23;100.00;101177.53;10456579;28;20057;-63
2023/12/26 09:37:38;;;;;;;1999.90;999.90;;;;;;;8.78;100.00;101187.41;10456242;28;20049;-63
2023/12/26 09:42:41;;;;;;;1999.90;999.90;;;;;;;8.58;100.00;101192.66;10456391;28;20045;-63
2023/12/26 09:47:44;;;;;;;1999.90;999.90;;;;;;;8.88;100.00;101207.00;10456155;28;20053;-63
2023/12/26 09:53:00;;;;;;;1999.90;999.90;;;;;;;9.04;100.00;101214.16;10456200;28;20057;-63
2023/12/26 09:58:02;;;;;;;1999.90;999.90;;;;;;;9.01;100.00;101227.34;10462389;28;20103;-63
2023/12/26 10:03:05;;;;;;;1999.90;999.90;;;;;;;8.86;100.00;101249.75;10462744;28;20048;-63
2023/12/26 10:08:08;;;;;;;1999.90;999.90;;;;;;;8.91;100.00;101239.97;10462717;28;20059;-63
2023/12/26 10:13:10;;;;;;;1999.90;999.90;;;;;;;8.89;100.00;101233.94;10464227;28;20045;-63
2023/12/26 10:18:13;;;;;;;1999.90;999.90;;;;;;;8.90;100.00;101251.31;10463481;28;20059;-63
2023/12/26 10:23:17;;;;;;;1999.90;999.90;;;;;;;9.13;100.00;101242.50;10463329;28;20119;-63
2023/12/26 10:28:20;;;;;;;1999.90;999.90;;;;;;;9.12;100.00;101259.06;10445409;28;20446;-63
2023/12/26 10:33:28;;;;;;;1999.90;999.90;;;;;;;8.96;100.00;101273.69;10462820;28;20377;-63
2023/12/26 10:38:31;;;;;;;1999.90;999.90;;;;;;;8.97;100.00;101267.56;10461667;28;20052;-63
2023/12/26 10:43:35;;;;;;;1999.90;999.90;;;;;;;9.33;95.58;101272.09;10462556;28;20055;-63
2023/12/26 10:48:38;;;;;;;1999.90;999.90;;;;;;;9.78;95.63;101276.16;10461169;28;20496;-63
2023/12/26 10:54:00;;;;;;;1999.90;999.90;;;;;;;9.75;94.99;101279.78;10461137;28;20053;-63
2023/12/26 10:59:03;;;;;;;1999.90;999.90;;;;;;;9.74;94.88;101279.84;10462344;28;20476;-63
2023/12/26 13:52:01;;;;;;;1999.90;999.90;;;;;;;9.24;93.34;101469.31;10456480;28;20071;-65
2023/12/26 13:57:41;;;;;;;1999.90;999.90;;;;;;;9.32;92.68;101479.47;10456221;28;20048;-65
2023/12/26 14:03:21;;;;;;;1999.90;999.90;;;;;;;9.24;89.49;101493.66;10455793;28;20387;-65
2023/12/26 14:09:00;;;;;;;1999.90;999.90;;;;;;;9.24;87.69;101495.44;10455979;28;20103;-65
2023/12/26 14:14:40;;;;;;;1999.90;999.90;;;;;;;9.20;87.10;101502.56;10455988;28;20053;-65
2023/12/26 14:20:20;;;;;;;1999.90;999.90;;;;;;;9.03;83.70;101508.47;10455445;28;20546;-65
2023/12/26 14:26:00;;;;;;;1999.90;999.90;;;;;;;9.14;86.42;101521.09;10455130;28;20400;-65
2023/12/26 14:31:39;;;;;;;1999.90;999.90;;;;;;;9.13;89.15;101532.47;10455664;28;20077;-65
2023/12/26 14:37:20;;;;;;;1999.90;999.90;;;;;;;8.90;86.76;101539.41;10455368;28;20083;-65
2023/12/26 14:42:59;;;;;;;1999.90;999.90;;;;;;;8.92;87.81;101553.25;10456568;28;20051;-65
2023/12/26 14:48:39;;;;;;;1999.90;999.90;;;;;;;9.18;85.79;101563.63;10462177;28;20053;-65
2023/12/26 14:53:42;;;;;;;1999.90;999.90;;;;;;;8.92;85.82;101573.31;10462571;28;20053;-65
2023/12/26 14:58:44;;;;;;;1999.90;999.90;;;;;;;8.84;84.04;101572.75;10462153;28;20055;-65
2023/12/26 15:03:48;;;;;;;1999.90;999.90;;;;;;;8.84;82.21;101585.81;10461825;28;20055;-65
2023/12/26 15:08:51;;;;;;;1999.90;999.90;;;;;;;8.79;81.48;101591.19;10461616;28;20065;-65
2023/12/26 15:13:53;;;;;;;1999.90;999.90;;;;;;;8.90;84.92;101596.03;10461380;28;20448;-65
2023/12/26 15:19:17;;;;;;;1999.90;999.90;;;;;;;8.75;83.37;101594.84;10461214;28;20475;-65
2023/12/26 15:24:19;;;;;;;1999.90;999.90;;;;;;;8.76;84.96;101612.22;10459862;28;20380;-65
2023/12/26 15:29:22;;;;;;;1999.90;999.90;;;;;;;8.69;84.55;101622.03;10460957;28;20070;-65
2023/12/26 15:34:24;;;;;;;1999.90;999.90;;;;;;;8.74;83.47;101621.84;10460572;28;20045;-65
2023/12/26 15:39:27;;;;;;;1999.90;999.90;;;;;;;8.83;84.42;101626.75;10460350;28;20053;-65
2023/12/26 15:44:30;;;;;;;1999.90;999.90;;;;;;;8.57;84.57;101630.28;10459751;28;20040;-65
2023/12/26 15:49:35;;;;;;;1999.90;999.90;;;;;;;8.81;83.61;101644.25;10459943;28;20056;-64
2023/12/26 15:54:40;;;;;;;1999.90;999.90;;;;;;;8.67;82.37;101646.47;10459347;28;20407;-65
2023/12/26 15:59:43;;;;;;;1999.90;999.90;;;;;;;8.69;83.98;101661.19;10459636;28;20563;-65
2023/12/26 16:04:45;;;;;;;1999.90;999.90;;;;;;;8.63;83.81;101663.16;10459264;28;20041;-65
2023/12/26 16:09:48;;;;;;;1999.90;999.90;;;;;;;8.75;82.69;101670.56;10458947;28;20438;-65
2023/12/26 16:14:50;;;;;;;1999.90;999.90;;;;;;;8.64;83.85;101680.53;10459076;28;20132;-65
2023/12/26 16:19:53;;;;;;;1999.90;999.90;;;;;;;8.77;85.99;101684.41;10458928;28;20060;-65
2023/12/26 16:24:55;;;;;;;1999.90;999.90;;;;;;;8.56;84.53;101699.06;10454032;28;20136;-65
2023/12/26 16:29:58;;;;;;;1999.90;999.90;;;;;;;8.70;87.26;101703.81;10453553;28;20059;-65
2023/12/26 16:35:07;;;;;;;1999.90;999.90;;;;;;;8.62;85.55;101713.66;10454473;28;20103;-65
2023/12/26 16:40:10;;;;;;;1999.90;999.90;;;;;;;8.53;87.22;101727.88;10454426;28;20575;-65
2023/12/26 16:45:12;;;;;;;1999.90;999.90;;;;;;;8.65;88.16;101750.13;10455681;28;20062;-65
2023/12/26 16:50:16;;;;;;;1999.90;999.90;;;;;;;8.87;88.77;101747.59;10458311;28;20057;-65
2023/12/26 16:55:18;;;;;;;1999.90;999.90;;;;;;;8.42;89.51;101759.50;10456301;28;20407;-65
2023/12/26 17:00:20;;;;;;;1999.90;999.90;;;;;;;8.55;89.87;101776.50;10457415;28;20124;-65
2023/12/26 17:05:23;;;;;;;1999.90;999.90;;;;;;;8.43;90.67;101776.09;10456479;28;20045;-65
2023/12/26 17:10:25;;;;;;;1999.90;999.90;;;;;;;8.35;91.63;101789.34;10457291;28;20483;-65
2023/12/26 17:15:28;;;;;;;1999.90;999.90;;;;;;;8.61;91.42;101792.88;10456865;28;20048;-65
2023/12/26 17:20:31;;;;;;;1999.90;999.90;;;;;;;8.45;93.57;101798.59;10456752;28;20495;-65
2023/12/26 17:25:36;;;;;;;1999.90;999.90;;;;;;;8.52;93.11;101802.75;10456919;28;20045;-65
2023/12/26 17:30:39;;;;;;;1999.90;999.90;;;;;;;8.61;91.41;101814.63;10456528;28;20140;-65
2023/12/26 17:35:41;;;;;;;1999.90;999.90;;;;;;;8.39;91.88;101817.06;10456384;28;20048;-65
2023/12/26 17:40:43;;;;;;;1999.90;999.90;;;;;;;8.31;92.64;101825.13;10455214;28;20049;-65
2023/12/26 17:45:46;;;;;;;1999.90;999.90;;;;;;;8.53;92.30;101832.28;10456511;28;20128;-65
2023/12/26 17:50:48;;;;;;;1999.90;999.90;;;;;;;8.24;94.00;101826.22;10456279;28;20124;-65
2023/12/26 17:55:51;;;;;;;1999.90;999.90;;;;;;;8.44;95.81;101825.63;10455308;28;20156;-65
2023/12/26 18:00:53;;;;;;;1999.90;999.90;;;;;;;8.03;97.99;101830.31;10456188;28;20128;-65
2023/12/26 18:05:56;;;;;;;1999.90;999.90;;;;;;;7.96;99.11;101826.19;10455754;28;20389;-65
2023/12/26 18:10:59;;;;;;;1999.90;999.90;;;;;;;7.75;100.00;101819.84;10454829;28;20084;-65
2023/12/26 18:16:01;;;;;;;1999.90;999.90;;;;;;;7.77;100.00;101821.53;10456950;28;20049;-65
2023/12/26 18:21:05;;;;;;;1999.90;999.90;;;;;;;7.40;100.00;101819.97;10463376;28;20057;-65
2023/12/26 18:26:07;;;;;;;1999.90;999.90;;;;;;;7.07;100.00;101826.94;10463921;28;20045;-65
2023/12/26 18:31:10;;;;;;;1999.90;999.90;;;;;;;7.22;100.00;101831.75;10463186;28;20063;-65
2023/12/26 18:36:12;;;;;;;1999.90;999.90;;;;;;;6.98;100.00;101850.63;10463226;28;20055;-65
2023/12/26 18:41:15;;;;;;;1999.90;999.90;;;;;;;6.92;100.00;101858.59;10462762;28;20053;-65
2023/12/26 18:46:19;;;;;;;1999.90;999.90;;;;;;;6.83;100.00;101876.13;10462668;28;20053;-65
2023/12/26 18:51:25;;;;;;;1999.90;999.90;;;;;;;6.75;100.00;101880.66;10462464;28;20480;-65
2023/12/26 18:56:28;;;;;;;1999.90;999.90;;;;;;;6.44;100.00;101881.41;10461122;28;20095;-65
2023/12/26 19:01:31;;;;;;;1999.90;999.90;;;;;;;6.54;100.00;101897.66;10460706;28;20506;-65
2023/12/26 19:06:35;;;;;;;1999.90;999.90;;;;;;;6.51;100.00;101911.59;10462312;28;20091;-65
2023/12/26 19:11:38;;;;;;;1999.90;999.90;;;;;;;6.47;100.00;101915.16;10461464;28;20045;-65
2023/12/26 19:16:41;;;;;;;1999.90;999.90;;;;;;;6.45;100.00;101918.66;10461302;28;20530;-65
2023/12/26 19:21:43;;;;;;;1999.90;999.90;;;;;;;6.49;100.00;101917.72;10461079;28;20041;-65
2023/12/26 19:26:46;;;;;;;1999.90;999.90;;;;;;;6.37;100.00;101924.06;10459732;28;20151;-65
2023/12/26 19:31:48;;;;;;;1999.90;999.90;;;;;;;6.20;100.00;101932.19;10460125;28;20586;-65
2023/12/26 19:36:50;;;;;;;1999.90;999.90;;;;;;;6.21;100.00;101933.91;10460894;28;20127;-65
2023/12/26 19:41:53;;;;;;;1999.90;999.90;;;;;;;5.87;100.00;101947.56;10460802;28;20124;-65
2023/12/26 19:46:55;;;;;;;1999.90;999.90;;;;;;;5.68;100.00;101949.66;10460180;28;20111;-65
2023/12/26 19:51:58;;;;;;;1999.90;999.90;;;;;;;5.75;100.00;101950.41;10459078;28;20045;-65
2023/12/26 19:57:00;;;;;;;1999.90;999.90;;;;;;;5.64;100.00;101967.94;10459782;28;20053;-65
2023/12/26 20:02:03;;;;;;;1999.90;999.90;;;;;;;5.59;100.00;101966.25;10459834;28;20055;-65
2023/12/26 20:07:06;;;;;;;1999.90;999.90;;;;;;;5.47;100.00;101971.69;10458114;28;20075;-64
2023/12/26 20:12:09;;;;;;;1999.90;999.90;;;;;;;5.55;100.00;101982.78;10458331;28;20053;-65
2023/12/26 20:17:12;;;;;;;1999.90;999.90;;;;;;;5.49;100.00;101990.69;10459070;28;20477;-65
2023/12/26 20:22:15;;;;;;;1999.90;999.90;;;;;;;5.51;100.00;101991.50;10459461;28;20049;-65
2023/12/26 20:27:17;;;;;;;1999.90;999.90;;;;;;;5.47;100.00;102002.00;10457696;28;20045;-65
2023/12/26 20:32:20;;;;;;;1999.90;999.90;;;;;;;5.52;100.00;101995.00;10458450;28;20177;-65
2023/12/26 20:37:27;;;;;;;1999.90;999.90;;;;;;;5.72;100.00;101992.03;10458368;28;20485;-65
2023/12/26 20:42:31;;;;;;;1999.90;999.90;;;;;;;5.60;100.00;102003.50;10458015;28;20056;-65
2023/12/26 20:47:34;;;;;;;1999.90;999.90;;;;;;;5.44;100.00;102010.69;10457937;28;20413;-65
2023/12/26 20:52:36;;;;;;;1999.90;999.90;;;;;;;5.69;100.00;102018.06;10457614;28;20455;-65
2023/12/26 20:57:39;;;;;;;1999.90;999.90;;;;;;;5.52;100.00;102002.78;10457653;28;20053;-65
2023/12/26 21:02:41;;;;;;;1999.90;999.90;;;;;;;5.72;100.00;101999.84;10457685;28;20041;-65
2023/12/26 21:07:43;;;;;;;1999.90;999.90;;;;;;;5.55;100.00;102000.13;10457207;28;20056;-65
2023/12/26 21:12:46;;;;;;;1999.90;999.90;;;;;;;5.50;100.00;101995.00;10457331;28;20040;-65
2023/12/26 21:17:48;;;;;;;1999.90;999.90;;;;;;;5.32;100.00;102009.16;10457074;28;20056;-65
2023/12/26 21:22:51;;;;;;;1999.90;999.90;;;;;;;5.40;100.00;102004.69;10456755;28;20128;-65
2023/12/26 21:27:53;;;;;;;1999.90;999.90;;;;;;;5.32;100.00;101997.91;10456885;28;20100;-65
2023/12/26 21:32:56;;;;;;;1999.90;999.90;;;;;;;5.32;100.00;102011.75;10456441;28;20458;-65
2023/12/26 21:37:59;;;;;;;1999.90;999.90;;;;;;;5.45;100.00;102021.97;10455288;28;20107;-65
2023/12/26 21:43:01;;;;;;;1999.90;999.90;;;;;;;5.42;100.00;102012.47;10454926;28;20494;-65
2023/12/26 21:48:04;;;;;;;1999.90;999.90;;;;;;;5.31;100.00;102014.38;10456077;28;20060;-65
2023/12/26 21:53:07;;;;;;;1999.90;999.90;;;;;;;5.26;100.00;102011.00;10459912;28;20095;-65
2023/12/26 21:58:09;;;;;;;1999.90;999.90;;;;;;;5.39;100.00;102026.34;10463259;28;20403;-65
2023/12/26 22:03:11;;;;;;;1999.90;999.90;;;;;;;5.09;100.00;102037.22;10464363;28;20128;-65
2023/12/26 22:08:14;;;;;;;1999.90;999.90;;;;;;;4.99;100.00;102041.66;10464169;28;20071;-65
2023/12/26 22:13:18;;;;;;;1999.90;999.90;;;;;;;5.19;100.00;102037.06;10464065;28;20124;-65
2023/12/26 22:18:21;;;;;;;1999.90;999.90;;;;;;;5.23;100.00;102040.47;10462676;28;20106;-65
2023/12/26 22:23:24;;;;;;;1999.90;999.90;;;;;;;5.42;100.00;102022.84;10462261;28;20056;-65
2023/12/26 22:28:26;;;;;;;1999.90;999.90;;;;;;;5.20;100.00;102033.56;10463427;28;20060;-65
2023/12/26 22:33:28;;;;;;;1999.90;999.90;;;;;;;5.21;100.00;102037.91;10461954;28;20049;-65
2023/12/26 22:38:31;;;;;;;1999.90;999.90;;;;;;;5.03;100.00;102039.00;10462158;28;20052;-65
2023/12/26 22:43:35;;;;;;;1999.90;999.90;;;;;;;4.98;100.00;102046.00;10462665;28;20052;-65
2023/12/26 22:48:37;;;;;;;1999.90;999.90;;;;;;;5.05;100.00;102064.09;10461658;28;20119;-65
2023/12/26 22:53:43;;;;;;;1999.90;999.90;;;;;;;4.92;100.00;102060.81;10462506;28;20073;-65
2023/12/26 22:58:45;;;;;;;1999.90;999.90;;;;;;;4.96;100.00;102068.53;10462142;28;20052;-65
2023/12/26 23:03:47;;;;;;;1999.90;999.90;;;;;;;5.07;100.00;102080.50;10460862;28;20174;-65
2023/12/26 23:08:50;;;;;;;1999.90;999.90;;;;;;;4.88;100.00;102074.72;10461682;28;20488;-65
2023/12/26 23:13:52;;;;;;;1999.90;999.90;;;;;;;5.11;100.00;102079.56;10462115;28;20566;-65
2023/12/26 23:18:55;;;;;;;1999.90;999.90;;;;;;;4.78;100.00;102081.75;10461518;28;20072;-65
2023/12/26 23:23:57;;;;;;;1999.90;999.90;;;;;;;4.89;100.00;102076.41;10461288;28;20072;-65
2023/12/26 23:29:02;;;;;;;1999.90;999.90;;;;;;;4.87;100.00;102079.03;10461230;28;20190;-65
2023/12/26 23:34:05;;;;;;;1999.90;999.90;;;;;;;4.66;100.00;102072.41;10460124;28;20495;-65
2023/12/26 23:39:08;;;;;;;1999.90;999.90;;;;;;;4.58;100.00;102062.09;10460882;28;20095;-65
2023/12/26 23:44:10;;;;;;;1999.90;999.90;;;;;;;4.53;100.00;102069.06;10459212;28;20049;-65
2023/12/26 23:49:13;;;;;;;1999.90;999.90;;;;;;;4.95;100.00;102056.44;10460645;28;20072;-65
2023/12/26 23:54:15;;;;;;;1999.90;999.90;;;;;;;4.66;100.00;102069.78;10460152;28;20048;-65
2023/12/26 23:59:18;;;;;;;1999.90;999.90;;;;;;;4.67;100.00;102057.69;10459734;28;20053;-65
